Terminal Aerodrome Forecast
Issued by NWS Cleveland, OH

Home | Current Version | Previous Version | Graphics & Text | Print | Product List | Glossary On
Versions: 1 2 3 4 5 6 7 8 9 10 11 12 13
000
FTUS41 KCLE 280537
TAFTOL
TAF
KTOL 280537Z 2806/2906 VRB03KT P6SM SKC
      TEMPO 2807/2810 3SM BR
     FM281000 VRB03KT 3SM BR SKC
      TEMPO 2811/2813 2SM BR
     FM281400 19004KT P6SM BKN040
     FM282200 15004KT P6SM FEW040 BKN150=

USA.gov is the U.S. government's official web portal to all federal, state and local government web resources and services.